Time;durP1;ratioP1;P1;durP2;ratioP2;P2;SDS_P1;SDS_P2;PMS_P1;PMS_P2;Temp;Humidity;BMP_temperature;BMP_pressure;BME280_temperature;BME280_humidity;BME280_pressure;Samples;Min_cycle;Max_cycle;Signal;HPM_P1;HPM_P2
2021/04/25 00:00:35;;;;;;;14.07;6.63;;;;;;;4.70;100.00;102884.25;6188721;23;20012;-81
2021/04/25 00:03:00;;;;;;;16.85;6.40;;;;;;;4.72;100.00;102885.13;6163118;23;20005;-81
2021/04/25 00:05:26;;;;;;;14.43;6.10;;;;;;;4.64;100.00;102883.31;6160219;23;20016;-82
2021/04/25 00:07:51;;;;;;;14.63;6.90;;;;;;;4.61;100.00;102880.63;6187955;23;20012;-82
2021/04/25 00:10:19;;;;;;;12.90;6.15;;;;;;;4.58;100.00;102885.84;6159802;23;20009;-80
2021/04/25 00:12:45;;;;;;;13.98;5.97;;;;;;;4.66;100.00;102892.03;6158881;23;20025;-80
2021/04/25 00:15:13;;;;;;;16.27;6.63;;;;;;;4.72;100.00;102885.13;6160308;23;20005;-80
2021/04/25 00:17:39;;;;;;;19.20;8.38;;;;;;;4.59;100.00;102874.50;6185943;23;20005;-81
2021/04/25 00:20:07;;;;;;;11.40;6.40;;;;;;;4.53;100.00;102876.19;6185983;23;20040;-81
2021/04/25 00:22:33;;;;;;;16.83;7.07;;;;;;;4.54;100.00;102870.94;6186034;23;20044;-81
2021/04/25 00:24:59;;;;;;;11.90;6.40;;;;;;;4.58;100.00;102871.88;6160557;23;20416;-82
2021/04/25 00:27:25;;;;;;;13.68;6.40;;;;;;;4.56;100.00;102876.19;6188161;23;20059;-81
2021/04/25 00:29:50;;;;;;;14.77;7.25;;;;;;;4.52;100.00;102877.00;6161737;23;20495;-81
2021/04/25 00:32:15;;;;;;;15.90;8.32;;;;;;;4.46;100.00;102885.66;6187339;23;20005;-81
2021/04/25 00:34:40;;;;;;;12.02;6.65;;;;;;;4.54;100.00;102872.69;6161282;23;20029;-82
2021/04/25 00:37:06;;;;;;;15.38;7.13;;;;;;;4.62;100.00;102876.31;6197447;23;20032;-79
2021/04/25 00:39:31;;;;;;;13.63;6.13;;;;;;;4.57;100.00;102862.28;6174622;23;20075;-82
2021/04/25 00:41:56;;;;;;;18.00;6.72;;;;;;;4.70;100.00;102861.53;6195004;23;20420;-80
2021/04/25 00:44:21;;;;;;;19.67;6.38;;;;;;;4.79;100.00;102861.66;6192847;23;20757;-81
2021/04/25 00:46:47;;;;;;;13.52;5.82;;;;;;;4.81;100.00;102867.78;6155388;23;20122;-80
2021/04/25 00:49:12;;;;;;;11.45;6.22;;;;;;;4.88;100.00;102859.16;6155679;23;20001;-80
2021/04/25 00:51:37;;;;;;;14.02;6.90;;;;;;;4.99;100.00;102863.63;6182562;23;20005;-80
2021/04/25 00:54:04;;;;;;;12.27;7.13;;;;;;;5.08;100.00;102863.72;6181965;23;20100;-81
2021/04/25 00:56:30;;;;;;;14.93;6.75;;;;;;;5.10;100.00;102855.00;6185306;23;20063;-81
2021/04/25 00:58:56;;;;;;;13.85;6.55;;;;;;;5.19;100.00;102855.09;6186919;23;20013;-81
2021/04/25 01:01:26;;;;;;;12.85;6.40;;;;;;;5.27;100.00;102859.53;6157497;23;20064;-81
2021/04/25 01:03:51;;;;;;;19.13;6.18;;;;;;;5.32;100.00;102863.06;6156942;23;20001;-80
2021/04/25 01:06:16;;;;;;;11.15;6.32;;;;;;;5.36;100.00;102850.00;6182124;23;20285;-80
2021/04/25 01:08:41;;;;;;;13.60;5.80;;;;;;;5.42;100.00;102857.03;6182141;23;20008;-80
2021/04/25 01:11:07;;;;;;;14.45;6.55;;;;;;;5.53;100.00;102862.41;6182154;23;20510;-80
2021/04/25 01:13:32;;;;;;;11.10;7.25;;;;;;;5.48;100.00;102862.38;6155483;23;20008;-81
2021/04/25 01:15:57;;;;;;;13.20;6.00;;;;;;;5.55;100.00;102861.53;6183476;23;20123;-80
2021/04/25 01:18:22;;;;;;;13.45;6.70;;;;;;;5.58;100.00;102864.19;6183793;23;20012;-81
2021/04/25 01:20:48;;;;;;;13.10;7.75;;;;;;;5.59;100.00;102858.09;6186188;23;20061;-80
2021/04/25 01:23:13;;;;;;;16.02;6.65;;;;;;;5.68;100.00;102862.53;6183715;23;20048;-80
2021/04/25 01:25:38;;;;;;;11.20;6.10;;;;;;;5.61;100.00;102865.97;6160124;23;20454;-81
2021/04/25 01:28:04;;;;;;;13.65;7.10;;;;;;;5.58;100.00;102858.97;6163357;23;20005;-81
2021/04/25 01:30:32;;;;;;;19.70;8.02;;;;;;;5.57;100.00;102858.91;6190159;23;20000;-81
2021/04/25 01:32:58;;;;;;;16.63;7.18;;;;;;;5.67;100.00;102853.78;6160620;23;20063;-81
2021/04/25 01:35:25;;;;;;;16.73;8.27;;;;;;;5.64;100.00;102848.50;6186019;23;20424;-81
2021/04/25 01:37:56;;;;;;;19.17;7.32;;;;;;;5.65;100.00;102858.13;6185492;23;20042;-81
2021/04/25 01:40:25;;;;;;;14.18;8.52;;;;;;;5.68;100.00;102852.03;6184753;23;20011;-81
2021/04/25 01:42:51;;;;;;;13.05;6.85;;;;;;;5.74;100.00;102853.84;6185453;23;20008;-81
2021/04/25 01:45:16;;;;;;;14.35;7.47;;;;;;;5.73;100.00;102850.34;6183380;23;20510;-81
2021/04/25 01:47:47;;;;;;;11.32;6.43;;;;;;;5.77;100.00;102852.09;6183076;23;20005;-80
2021/04/25 01:50:14;;;;;;;11.43;7.45;;;;;;;5.79;100.00;102852.13;6182959;23;20012;-80
2021/04/25 01:52:39;;;;;;;15.45;7.15;;;;;;;5.83;100.00;102853.91;6183303;23;20398;-81
2021/04/25 01:55:06;;;;;;;12.73;6.20;;;;;;;5.78;100.00;102853.88;6182221;23;20008;-80
2021/04/25 01:57:31;;;;;;;10.15;6.15;;;;;;;5.87;100.00;102843.44;6182785;23;20020;-80
2021/04/25 01:59:56;;;;;;;9.00;6.35;;;;;;;5.94;100.00;102860.13;6181652;23;20320;-79
2021/04/25 02:02:21;;;;;;;10.90;5.90;;;;;;;5.91;100.00;102849.56;6155842;23;20104;-81
2021/04/25 02:04:47;;;;;;;13.65;6.53;;;;;;;5.83;100.00;102852.16;6182091;23;20005;-81
2021/04/25 02:07:12;;;;;;;16.85;6.50;;;;;;;5.91;100.00;102865.31;6156185;23;20382;-81
2021/04/25 02:09:37;;;;;;;10.88;5.82;;;;;;;5.97;100.00;102855.78;6156082;23;20008;-81
2021/04/25 02:12:04;;;;;;;19.58;7.43;;;;;;;5.94;100.00;102854.88;6181744;23;20013;-81
2021/04/25 02:14:29;;;;;;;15.85;7.28;;;;;;;5.89;100.00;102859.19;6155274;23;20043;-82
2021/04/25 02:16:54;;;;;;;12.13;6.10;;;;;;;5.95;100.00;102856.63;6183939;23;20001;-82
2021/04/25 02:19:20;;;;;;;13.57;5.97;;;;;;;6.04;100.00;102858.47;6183967;23;20004;-82
2021/04/25 02:21:45;;;;;;;13.45;6.82;;;;;;;5.99;100.00;102850.53;6183557;23;20012;-80
2021/04/25 02:24:11;;;;;;;14.05;6.72;;;;;;;6.00;100.00;102852.28;6156727;23;20005;-82
2021/04/25 02:26:36;;;;;;;13.35;7.88;;;;;;;6.05;100.00;102857.59;6183392;23;20005;-81
2021/04/25 02:29:01;;;;;;;11.75;6.22;;;;;;;6.05;100.00;102847.94;6182464;23;20371;-81
2021/04/25 02:31:27;;;;;;;14.38;6.20;;;;;;;6.05;100.00;102854.97;6181886;23;20005;-80
2021/04/25 02:33:52;;;;;;;12.20;6.25;;;;;;;6.03;100.00;102860.19;6182123;23;20378;-81
2021/04/25 02:36:17;;;;;;;12.07;6.00;;;;;;;5.96;100.00;102846.13;6188991;23;20005;-81
2021/04/25 02:38:42;;;;;;;17.20;8.82;;;;;;;6.05;100.00;102852.31;6162356;23;20019;-81
2021/04/25 02:41:08;;;;;;;11.40;5.75;;;;;;;6.01;100.00;102847.91;6188704;23;20080;-81
2021/04/25 02:43:33;;;;;;;19.30;8.32;;;;;;;5.98;100.00;102835.66;6189388;23;20005;-81
2021/04/25 02:45:58;;;;;;;11.65;6.03;;;;;;;6.04;100.00;102837.47;6192185;23;20404;-81
2021/04/25 02:48:24;;;;;;;12.30;6.68;;;;;;;6.05;100.00;102841.81;6162379;23;20005;-81
2021/04/25 02:50:49;;;;;;;9.95;6.20;;;;;;;6.11;100.00;102840.09;6185982;23;20004;-81
2021/04/25 02:53:14;;;;;;;11.98;6.68;;;;;;;6.04;100.00;102850.56;6161920;23;20005;-82
2021/04/25 02:55:40;;;;;;;12.73;6.38;;;;;;;6.04;100.00;102855.84;6162298;23;20136;-82
2021/04/25 02:58:07;;;;;;;13.27;6.93;;;;;;;6.13;100.00;102855.88;6160278;23;20105;-82
2021/04/25 03:00:32;;;;;;;10.70;5.93;;;;;;;6.15;100.00;102859.38;6160232;23;20359;-82
2021/04/25 03:02:58;;;;;;;17.98;8.07;;;;;;;6.09;100.00;102852.34;6187088;23;20005;-80
2021/04/25 03:05:25;;;;;;;14.32;6.78;;;;;;;6.13;100.00;102851.50;6187075;23;20001;-81
2021/04/25 03:07:50;;;;;;;17.42;6.95;;;;;;;6.21;100.00;102854.16;6187878;23;19997;-81
2021/04/25 03:10:17;;;;;;;16.45;7.43;;;;;;;6.11;100.00;102845.34;6186768;23;20101;-81
2021/04/25 03:12:43;;;;;;;16.52;8.10;;;;;;;6.07;100.00;102842.69;6158566;23;20079;-82
2021/04/25 03:15:10;;;;;;;15.55;7.53;;;;;;;6.07;100.00;102838.31;6184336;23;20001;-82
2021/04/25 03:17:35;;;;;;;10.63;6.93;;;;;;;6.06;100.00;102843.56;6185803;23;20001;-81
2021/04/25 03:20:01;;;;;;;17.55;7.60;;;;;;;5.99;100.00;102837.41;6185420;23;20039;-81
2021/04/25 03:22:26;;;;;;;21.40;7.25;;;;;;;5.97;100.00;102844.38;6186120;23;20004;-81
2021/04/25 03:24:51;;;;;;;15.68;7.20;;;;;;;5.99;100.00;102839.16;6185091;23;20411;-81
2021/04/25 03:27:17;;;;;;;13.35;7.53;;;;;;;6.04;100.00;102846.19;6186398;23;20506;-82
2021/04/25 03:29:42;;;;;;;13.55;6.28;;;;;;;5.89;100.00;102840.81;6160578;23;20005;-81
2021/04/25 03:32:08;;;;;;;17.88;7.38;;;;;;;5.75;100.00;102837.22;6159796;23;20297;-81
2021/04/25 03:34:33;;;;;;;15.93;7.45;;;;;;;5.63;100.00;102841.50;6186400;23;20101;-81
2021/04/25 03:36:59;;;;;;;9.43;5.75;;;;;;;5.63;100.00;102849.38;6160693;23;20008;-80
2021/04/25 03:39:24;;;;;;;17.08;7.68;;;;;;;5.59;100.00;102849.34;6159464;23;20031;-82
2021/04/25 03:41:49;;;;;;;14.43;7.15;;;;;;;5.51;100.00;102841.41;6185491;23;20009;-81
2021/04/25 03:44:15;;;;;;;15.57;6.18;;;;;;;5.54;100.00;102840.56;6185675;23;20076;-81
2021/04/25 03:46:42;;;;;;;13.48;6.63;;;;;;;5.45;100.00;102836.09;6186660;23;20001;-82
2021/04/25 03:49:07;;;;;;;12.82;5.68;;;;;;;5.46;100.00;102832.59;6186151;23;20001;-82
2021/04/25 03:51:33;;;;;;;13.90;6.80;;;;;;;5.44;100.00;102829.09;6159354;23;20071;-82
2021/04/25 03:53:58;;;;;;;12.15;7.05;;;;;;;5.51;100.00;102828.28;6185376;23;20327;-82
2021/04/25 03:56:23;;;;;;;18.38;7.40;;;;;;;5.43;100.00;102816.88;6163907;23;20035;-80
2021/04/25 03:58:49;;;;;;;14.52;6.47;;;;;;;5.57;100.00;102830.06;6190781;23;20005;-82
2021/04/25 04:01:14;;;;;;;12.82;6.53;;;;;;;5.60;100.00;102825.72;6162139;23;20005;-82
2021/04/25 04:03:39;;;;;;;15.90;7.00;;;;;;;5.64;100.00;102832.75;6189581;23;20001;-83
2021/04/25 04:06:05;;;;;;;13.77;6.43;;;;;;;5.69;100.00;102836.31;6159243;23;20711;-81
2021/04/25 04:08:30;;;;;;;15.55;7.53;;;;;;;5.79;100.00;102834.63;6158443;23;20005;-82
2021/04/25 04:10:55;;;;;;;12.88;6.45;;;;;;;5.73;100.00;102818.84;6184501;23;20059;-82
2021/04/25 04:13:21;;;;;;;15.25;6.13;;;;;;;5.78;100.00;102824.13;6156781;23;20017;-82
2021/04/25 04:15:46;;;;;;;9.10;5.75;;;;;;;5.74;100.00;102825.84;6158581;23;20013;-81
2021/04/25 04:18:11;;;;;;;12.38;6.20;;;;;;;5.81;100.00;102826.75;6183812;23;20009;-81
2021/04/25 04:20:36;;;;;;;11.43;6.15;;;;;;;5.90;100.00;102829.44;6156628;23;20005;-80
2021/04/25 04:23:03;;;;;;;10.95;5.55;;;;;;;5.89;100.00;102827.69;6183924;23;20008;-82
2021/04/25 04:25:29;;;;;;;16.08;6.35;;;;;;;5.97;100.00;102816.41;6188691;23;20005;-82
2021/04/25 04:27:54;;;;;;;14.48;6.88;;;;;;;5.92;100.00;102819.84;6165125;23;20025;-82
2021/04/25 04:30:19;;;;;;;16.77;6.68;;;;;;;5.96;100.00;102822.50;6164745;23;20108;-82
2021/04/25 04:32:45;;;;;;;13.40;6.13;;;;;;;5.98;100.00;102830.44;6162664;23;20403;-81
2021/04/25 04:35:10;;;;;;;12.68;6.53;;;;;;;5.92;100.00;102826.03;6184337;23;20032;-81
2021/04/25 04:37:35;;;;;;;12.07;5.88;;;;;;;5.93;100.00;102822.53;6185844;23;20011;-81
2021/04/25 04:40:01;;;;;;;12.40;5.85;;;;;;;5.88;100.00;102832.06;6157948;23;20105;-79
2021/04/25 04:42:26;;;;;;;15.80;6.88;;;;;;;5.91;100.00;102825.94;6184014;23;20076;-80
2021/04/25 04:44:51;;;;;;;9.90;5.65;;;;;;;5.86;100.00;102825.91;6185663;23;20624;-81
2021/04/25 04:47:17;;;;;;;13.32;5.82;;;;;;;5.95;100.00;102839.13;6162362;23;20005;-81
2021/04/25 04:49:42;;;;;;;14.52;6.95;;;;;;;5.94;100.00;102837.38;6161713;23;20012;-81
2021/04/25 04:52:07;;;;;;;9.60;5.65;;;;;;;5.97;100.00;102831.25;6160368;23;20005;-81
2021/04/25 04:54:33;;;;;;;12.50;6.82;;;;;;;6.01;100.00;102826.91;6186134;23;20001;-81
2021/04/25 04:56:58;;;;;;;15.98;6.50;;;;;;;5.95;100.00;102828.63;6163700;23;20009;-81
2021/04/25 04:59:24;;;;;;;21.42;7.35;;;;;;;5.88;100.00;102837.31;6164722;23;20001;-82
2021/04/25 05:01:49;;;;;;;9.65;5.68;;;;;;;5.90;100.00;102821.56;6165886;23;20012;-81
2021/04/25 05:04:15;;;;;;;11.98;6.30;;;;;;;6.01;100.00;102833.03;6165274;23;20005;-81
2021/04/25 05:06:40;;;;;;;10.00;5.82;;;;;;;6.05;100.00;102828.69;6183093;23;20404;-81
2021/04/25 05:09:06;;;;;;;12.68;6.95;;;;;;;5.98;100.00;102833.06;6182614;23;19997;-80
2021/04/25 05:11:31;;;;;;;16.38;6.22;;;;;;;5.99;100.00;102841.78;6182228;23;20092;-80
2021/04/25 05:13:56;;;;;;;14.00;6.03;;;;;;;6.07;100.00;102840.06;6183058;23;20009;-81
2021/04/25 05:16:21;;;;;;;9.82;5.80;;;;;;;5.99;100.00;102836.53;6160876;23;20012;-81
2021/04/25 05:18:47;;;;;;;14.63;6.45;;;;;;;5.99;100.00;102847.03;6188705;23;20625;-81
2021/04/25 05:21:12;;;;;;;14.02;6.43;;;;;;;6.08;100.00;102853.22;6160532;23;20056;-81
2021/04/25 05:23:37;;;;;;;11.18;6.25;;;;;;;6.06;100.00;102835.69;6160718;23;20676;-81
2021/04/25 05:26:03;;;;;;;14.55;6.47;;;;;;;6.10;100.00;102835.72;6164109;23;20678;-81
2021/04/25 05:28:30;;;;;;;15.98;6.28;;;;;;;6.25;100.00;102847.19;6190390;23;20001;-80
2021/04/25 05:30:56;;;;;;;10.25;4.55;;;;;;;6.17;100.00;102842.75;6190286;23;20028;-81
2021/04/25 05:33:21;;;;;;;16.90;5.47;;;;;;;6.12;100.00;102848.84;6187610;23;20136;-80
2021/04/25 05:35:46;;;;;;;9.00;4.53;;;;;;;6.21;100.00;102864.66;6161689;23;20013;-80
2021/04/25 05:38:13;;;;;;;10.60;4.68;;;;;;;6.21;100.00;102857.66;6186256;23;20005;-81
2021/04/25 05:40:38;;;;;;;8.80;4.07;;;;;;;6.27;100.00;102861.19;6160561;23;20379;-80
2021/04/25 05:43:03;;;;;;;17.60;4.00;;;;;;;6.21;100.00;102857.66;6159328;23;20012;-80
2021/04/25 05:45:28;;;;;;;9.90;5.35;;;;;;;6.29;100.00;102862.09;6188299;23;20367;-81
2021/04/25 05:47:56;;;;;;;9.60;3.97;;;;;;;6.26;100.00;102859.44;6161704;23;20001;-80
2021/04/25 05:50:24;;;;;;;11.00;3.58;;;;;;;6.44;100.00;102856.94;6188509;23;20013;-82
2021/04/25 05:52:50;;;;;;;10.07;2.85;;;;;;;6.35;100.00;102870.88;6187826;23;20140;-82
2021/04/25 05:55:16;;;;;;;16.05;2.42;;;;;;;6.37;100.00;102873.50;6162545;23;20012;-82
2021/04/25 05:57:43;;;;;;;5.75;2.70;;;;;;;6.35;100.00;102881.38;6188557;23;20032;-81
2021/04/25 06:00:10;;;;;;;14.38;2.35;;;;;;;6.36;100.00;102875.25;6187527;23;20739;-81
2021/04/25 06:02:35;;;;;;;8.25;2.40;;;;;;;6.40;100.00;102876.16;6164782;23;19997;-82
2021/04/25 06:05:01;;;;;;;11.40;2.00;;;;;;;6.39;100.00;102879.66;6163609;23;20005;-81
2021/04/25 06:07:27;;;;;;;5.78;2.20;;;;;;;6.57;100.00;102871.84;6186345;23;20005;-81
2021/04/25 06:09:52;;;;;;;10.27;2.38;;;;;;;6.33;100.00;102875.25;6182844;23;20020;-81
2021/04/25 06:12:17;;;;;;;6.03;2.20;;;;;;;6.54;100.00;102879.75;6183334;23;20035;-80
2021/04/25 06:14:43;;;;;;;13.27;3.45;;;;;;;6.49;100.00;102879.72;6182917;23;20003;-80
2021/04/25 06:17:08;;;;;;;14.75;3.72;;;;;;;6.70;100.00;102885.94;6182719;23;20005;-79
2021/04/25 06:19:33;;;;;;;8.35;2.75;;;;;;;6.60;100.00;102887.66;6155913;23;20149;-80
2021/04/25 06:21:59;;;;;;;15.43;4.30;;;;;;;6.69;99.20;102882.44;6181131;23;20000;-79
2021/04/25 06:24:24;;;;;;;6.57;2.53;;;;;;;6.74;96.15;102869.31;6182798;23;20005;-81
2021/04/25 06:26:49;;;;;;;3.78;2.03;;;;;;;6.81;95.21;102880.72;6187917;23;20020;-80
2021/04/25 06:29:15;;;;;;;10.00;2.25;;;;;;;6.94;95.98;102883.41;6187977;23;20414;-80
2021/04/25 06:31:40;;;;;;;13.38;3.85;;;;;;;6.93;95.43;102881.66;6183870;23;20080;-81
2021/04/25 06:34:05;;;;;;;9.88;3.47;;;;;;;6.88;95.56;102891.28;6158011;23;20011;-80
2021/04/25 06:36:30;;;;;;;7.13;2.00;;;;;;;6.84;96.25;102893.88;6183192;23;20001;-80
2021/04/25 06:38:56;;;;;;;8.68;2.28;;;;;;;6.90;96.48;102892.16;6180917;23;20377;-80
2021/04/25 06:41:21;;;;;;;7.88;2.30;;;;;;;6.85;96.42;102901.78;6179317;23;20001;-80
2021/04/25 06:43:46;;;;;;;5.38;2.00;;;;;;;6.79;97.44;102891.25;6179511;23;20008;-78
2021/04/25 06:46:12;;;;;;;8.98;2.28;;;;;;;6.94;95.87;102890.41;6155323;23;20016;-81
2021/04/25 06:48:37;;;;;;;11.45;2.40;;;;;;;6.94;94.36;102893.06;6180284;23;20403;-80
2021/04/25 06:51:04;;;;;;;7.35;2.60;;;;;;;6.92;94.88;102895.66;6179340;23;20780;-81
2021/04/25 06:53:30;;;;;;;7.47;3.20;;;;;;;7.00;94.79;102895.69;6158177;23;20430;-80
2021/04/25 06:55:55;;;;;;;7.20;2.50;;;;;;;7.14;93.22;102899.25;6184108;23;20009;-80
2021/04/25 06:58:20;;;;;;;10.77;3.10;;;;;;;7.11;92.53;102904.47;6182572;23;20420;-80
2021/04/25 07:00:46;;;;;;;11.30;2.63;;;;;;;7.33;91.44;102897.53;6181625;23;20012;-80
2021/04/25 07:03:11;;;;;;;9.55;2.42;;;;;;;7.26;91.84;102899.25;6184488;23;20008;-80
2021/04/25 07:05:37;;;;;;;7.40;2.17;;;;;;;7.33;90.46;102899.25;6188704;23;20005;-79
2021/04/25 07:08:02;;;;;;;6.28;1.80;;;;;;;7.34;91.72;102901.03;6196272;23;20487;-80
2021/04/25 07:10:28;;;;;;;6.88;2.25;;;;;;;7.29;89.52;102902.78;6193195;23;20001;-79
2021/04/25 07:12:54;;;;;;;6.75;2.15;;;;;;;7.27;88.58;102903.63;6156228;23;20330;-81
2021/04/25 07:15:20;;;;;;;6.60;2.42;;;;;;;7.55;88.42;102913.34;6187388;23;20005;-81
2021/04/25 07:17:45;;;;;;;8.82;2.70;;;;;;;7.49;88.64;102901.94;6159627;23;20088;-80
2021/04/25 07:20:11;;;;;;;8.90;2.97;;;;;;;7.47;87.65;102908.94;6183316;23;20009;-80
2021/04/25 07:22:38;;;;;;;8.75;2.83;;;;;;;7.52;85.99;102906.31;6185695;23;20009;-80
2021/04/25 07:25:04;;;;;;;12.93;2.50;;;;;;;7.47;85.82;102902.78;6159487;23;20005;-80
2021/04/25 07:27:30;;;;;;;9.55;2.72;;;;;;;7.45;85.09;102908.06;6157654;23;20004;-80
2021/04/25 07:29:55;;;;;;;10.68;3.38;;;;;;;7.52;84.81;102912.44;6183581;23;20009;-80
2021/04/25 07:32:21;;;;;;;9.95;2.30;;;;;;;7.69;84.46;102912.47;6183243;23;20514;-80
2021/04/25 07:34:46;;;;;;;7.43;2.45;;;;;;;7.63;84.48;102917.75;6183949;23;20080;-80
2021/04/25 07:37:13;;;;;;;9.82;2.40;;;;;;;7.69;84.52;102911.59;6187474;23;20104;-80
2021/04/25 07:39:39;;;;;;;6.20;3.13;;;;;;;7.70;84.83;102916.88;6160416;23;20032;-80
2021/04/25 07:42:05;;;;;;;10.60;2.47;;;;;;;7.75;84.24;102915.09;6187153;23;20427;-80
2021/04/25 07:44:30;;;;;;;10.18;2.45;;;;;;;7.68;84.35;102921.25;6185247;23;20004;-79
2021/04/25 07:46:56;;;;;;;13.50;2.60;;;;;;;7.75;83.96;102908.97;6156314;23;20020;-79
2021/04/25 07:49:22;;;;;;;4.90;2.88;;;;;;;7.70;83.58;102905.47;6155609;23;20028;-80
2021/04/25 07:51:47;;;;;;;8.82;2.72;;;;;;;7.69;83.37;102911.59;6167583;23;20005;-79
2021/04/25 07:54:12;;;;;;;12.15;2.90;;;;;;;7.70;82.18;102911.59;6150258;23;20501;-79
2021/04/25 07:56:38;;;;;;;6.45;2.58;;;;;;;7.95;80.92;102909.84;6182757;23;20015;-79
2021/04/25 07:59:03;;;;;;;13.63;2.28;;;;;;;8.21;80.40;102911.56;6152829;23;20009;-79
2021/04/25 08:01:29;;;;;;;7.97;1.92;;;;;;;8.09;79.11;102903.69;6152448;23;20072;-79
2021/04/25 08:03:57;;;;;;;7.75;1.83;;;;;;;8.13;79.02;102908.94;6179344;23;20021;-80
2021/04/25 08:06:22;;;;;;;13.60;3.10;;;;;;;8.26;78.04;102910.69;6155021;23;20200;-79
2021/04/25 08:08:47;;;;;;;11.40;2.75;;;;;;;8.30;77.30;102914.19;6155073;23;20009;-79
2021/04/25 08:11:13;;;;;;;8.02;2.38;;;;;;;8.37;76.51;102921.22;6182970;23;20009;-79
2021/04/25 08:13:38;;;;;;;8.82;2.72;;;;;;;8.47;76.74;102911.53;6181351;23;20398;-80
2021/04/25 08:16:04;;;;;;;7.70;2.45;;;;;;;8.73;74.97;102908.81;6182374;23;20015;-79
2021/04/25 08:18:29;;;;;;;12.40;2.20;;;;;;;8.50;74.18;102912.41;6181510;23;20012;-80
2021/04/25 08:20:55;;;;;;;12.68;2.20;;;;;;;8.48;72.22;102908.91;6182776;23;20032;-80
2021/04/25 08:23:20;;;;;;;12.43;3.03;;;;;;;8.63;70.07;102912.38;6181695;23;20012;-80
2021/04/25 08:25:45;;;;;;;7.32;2.00;;;;;;;8.85;71.84;102913.19;6158987;23;20331;-79
2021/04/25 08:28:11;;;;;;;6.63;1.77;;;;;;;8.72;72.92;102915.84;6188671;23;20056;-79
2021/04/25 08:30:36;;;;;;;12.65;2.17;;;;;;;8.54;73.03;102913.28;6187404;23;20009;-79
2021/04/25 08:33:02;;;;;;;9.48;2.22;;;;;;;8.82;73.44;102909.66;6182325;23;20035;-80
2021/04/25 08:35:28;;;;;;;14.02;2.83;;;;;;;8.65;73.07;102911.50;6182860;23;20063;-78
2021/04/25 08:37:53;;;;;;;12.70;2.05;;;;;;;9.17;70.97;102908.59;6183139;23;20057;-79
2021/04/25 08:40:20;;;;;;;9.32;2.20;;;;;;;9.11;68.70;102903.38;6186499;23;20001;-79
2021/04/25 08:42:45;;;;;;;12.20;2.30;;;;;;;9.07;68.93;102906.91;6158681;23;20005;-79
2021/04/25 08:45:15;;;;;;;9.13;1.80;;;;;;;9.06;69.87;102910.44;6183399;23;20530;-80
2021/04/25 08:47:53;;;;;;;11.20;3.33;;;;;;;9.01;70.32;102912.22;6181666;23;20013;-79
2021/04/25 08:50:18;;;;;;;8.88;2.13;;;;;;;9.25;69.08;102903.28;6154473;23;20016;-79
2021/04/25 08:52:44;;;;;;;9.63;2.08;;;;;;;9.58;67.92;102903.03;6155201;23;20009;-79
2021/04/25 08:55:13;;;;;;;8.70;2.28;;;;;;;9.51;69.47;102905.75;6182728;23;20001;-79
2021/04/25 08:57:38;;;;;;;6.65;1.88;;;;;;;9.34;67.69;102900.59;6183224;23;20084;-78
2021/04/25 09:00:05;;;;;;;6.00;1.90;;;;;;;9.47;67.14;102894.34;6155468;23;20036;-79
2021/04/25 09:02:30;;;;;;;6.88;1.70;;;;;;;9.72;65.99;102902.06;6182842;23;20107;-79
2021/04/25 09:04:58;;;;;;;12.10;2.30;;;;;;;9.78;65.34;102894.09;6182186;23;20047;-78
2021/04/25 09:07:24;;;;;;;8.23;1.98;;;;;;;10.03;62.32;102903.53;6181801;23;20024;-79
2021/04/25 09:09:56;;;;;;;7.75;2.30;;;;;;;10.23;61.43;102903.34;6180078;23;20009;-79
2021/04/25 09:12:41;;;;;;;9.52;2.67;;;;;;;9.84;62.21;102905.50;6180830;23;20024;-79
2021/04/25 09:15:09;;;;;;;9.93;2.27;;;;;;;10.26;61.81;102903.38;6181927;23;20620;-79
2021/04/25 09:18:01;;;;;;;8.35;1.90;;;;;;;10.47;62.15;102899.63;6181830;23;20030;-79
2021/04/25 09:20:46;;;;;;;6.00;1.70;;;;;;;10.63;59.78;102895.00;6180151;23;20470;-79
2021/04/25 09:23:13;;;;;;;7.05;1.83;;;;;;;9.94;63.69;102895.72;6181691;23;20000;-79
2021/04/25 09:25:52;;;;;;;12.75;2.72;;;;;;;10.11;61.86;102895.56;6182652;23;20036;-81
2021/04/25 09:28:21;;;;;;;18.88;2.65;;;;;;;10.06;60.39;102900.00;6181938;23;20506;-80
2021/04/25 09:31:07;;;;;;;12.90;2.15;;;;;;;11.15;55.79;102897.00;6180251;23;20063;-80
2021/04/25 09:33:56;;;;;;;6.55;1.92;;;;;;;11.18;55.64;102898.72;6155688;23;20092;-80
2021/04/25 09:36:33;;;;;;;13.98;2.53;;;;;;;10.63;57.92;102895.88;6157476;23;20646;-80
2021/04/25 09:39:13;;;;;;;10.43;2.25;;;;;;;10.57;58.13;102903.03;6182425;23;20061;-80
2021/04/25 09:41:39;;;;;;;9.18;1.27;;;;;;;10.65;58.11;102889.72;6181107;23;20008;-80
2021/04/25 09:44:05;;;;;;;8.63;1.75;;;;;;;10.94;56.87;102884.91;6180541;23;20005;-79
2021/04/25 09:46:54;;;;;;;7.97;1.90;;;;;;;10.94;57.33;102881.41;6184313;23;20324;-80
2021/04/25 09:49:40;;;;;;;10.98;1.77;;;;;;;11.38;56.00;102888.69;6184402;23;20000;-79
2021/04/25 09:52:06;;;;;;;4.32;1.55;;;;;;;11.33;54.63;102893.19;6156213;23;20331;-79
2021/04/25 09:54:32;;;;;;;6.95;1.77;;;;;;;10.63;56.84;102887.94;6180882;23;20033;-79
2021/04/25 09:56:58;;;;;;;14.05;2.20;;;;;;;10.49;58.00;102892.56;6180492;23;20567;-79
2021/04/25 09:59:23;;;;;;;6.18;1.45;;;;;;;11.14;56.51;102885.53;6154256;23;20115;-80
2021/04/25 10:02:02;;;;;;;3.88;1.13;;;;;;;11.13;56.79;102894.34;6180289;23;20032;-80
2021/04/25 10:04:36;;;;;;;9.80;1.70;;;;;;;10.92;57.16;102884.06;6181148;23;20051;-79
2021/04/25 10:07:07;;;;;;;11.13;1.75;;;;;;;11.35;55.29;102883.47;6155063;23;20008;-80
2021/04/25 10:09:32;;;;;;;14.20;2.35;;;;;;;11.30;54.06;102882.66;6180087;23;20020;-80
2021/04/25 10:12:00;;;;;;;6.72;1.70;;;;;;;11.23;54.61;102881.88;6179962;23;20091;-80
2021/04/25 10:14:27;;;;;;;6.00;1.90;;;;;;;11.35;55.23;102868.47;6153862;23;20019;-80
2021/04/25 10:16:55;;;;;;;10.32;2.00;;;;;;;11.35;56.20;102876.41;6181547;23;20008;-79
2021/04/25 10:19:20;;;;;;;8.00;2.30;;;;;;;11.28;53.86;102874.72;6181193;23;20731;-79
2021/04/25 10:21:47;;;;;;;14.90;1.83;;;;;;;11.13;52.75;102872.31;6181265;23;20001;-79
2021/04/25 10:24:20;;;;;;;7.93;1.90;;;;;;;11.09;52.38;102879.44;6182120;23;20012;-80
2021/04/25 10:26:53;;;;;;;9.38;1.63;;;;;;;11.37;51.73;102884.31;6183942;23;20005;-79
2021/04/25 10:29:24;;;;;;;12.82;1.80;;;;;;;12.53;48.46;102869.00;6180112;23;20001;-80
2021/04/25 10:31:55;;;;;;;10.10;1.63;;;;;;;12.36;48.91;102872.00;6180666;23;20502;-80
2021/04/25 10:34:21;;;;;;;7.88;2.00;;;;;;;12.10;50.58;102864.56;6185151;23;20005;-81
2021/04/25 10:36:46;;;;;;;10.82;1.60;;;;;;;11.88;51.11;102872.00;6164975;23;20104;-79
2021/04/25 10:39:34;;;;;;;4.93;1.55;;;;;;;11.63;52.83;102871.53;6189243;23;20016;-78
2021/04/25 10:42:17;;;;;;;9.57;1.85;;;;;;;11.69;51.53;102867.91;6189633;23;20011;-79
2021/04/25 10:45:16;;;;;;;9.55;2.53;;;;;;;11.58;50.82;102868.06;6179237;23;20017;-79
2021/04/25 10:47:44;;;;;;;8.55;1.58;;;;;;;11.96;49.94;102871.88;6180285;23;20009;-79
2021/04/25 10:50:09;;;;;;;5.68;1.92;;;;;;;11.84;50.20;102872.09;6179787;23;20088;-80
2021/04/25 10:52:36;;;;;;;11.90;1.47;;;;;;;11.95;49.02;102867.50;6180386;23;20411;-79
2021/04/25 10:55:14;;;;;;;13.48;1.80;;;;;;;11.91;48.78;102864.03;6179907;23;20586;-79
2021/04/25 10:58:02;;;;;;;8.43;1.83;;;;;;;12.16;48.53;102847.66;6182607;23;20028;-81
2021/04/25 11:00:31;;;;;;;12.88;1.92;;;;;;;11.76;50.40;102858.97;6154554;23;20031;-79
2021/04/25 11:03:00;;;;;;;13.63;1.58;;;;;;;11.68;49.98;102851.13;6182276;23;20678;-79
2021/04/25 11:05:35;;;;;;;4.13;1.38;;;;;;;12.15;49.72;102857.41;6152323;23;20013;-80
2021/04/25 11:08:01;;;;;;;8.68;1.60;;;;;;;12.34;49.26;102847.28;6181870;23;20005;-80
2021/04/25 11:10:45;;;;;;;10.45;2.08;;;;;;;13.09;47.18;102839.50;6154737;23;20009;-79
2021/04/25 11:13:33;;;;;;;8.27;1.95;;;;;;;13.71;45.38;102840.66;6181260;23;20012;-79
2021/04/25 11:16:01;;;;;;;10.25;2.55;;;;;;;13.36;46.70;102838.88;6186067;23;20001;-80
2021/04/25 11:18:46;;;;;;;8.70;1.92;;;;;;;15.50;41.34;102839.81;6158043;23;20459;-80
2021/04/25 11:21:44;;;;;;;10.38;1.67;;;;;;;13.98;44.16;102843.50;6181604;23;20320;-80